Time;durP1;ratioP1;P1;durP2;ratioP2;P2;SDS_P1;SDS_P2;PMS_P1;PMS_P2;Temp;Humidity;BMP_temperature;BMP_pressure;BME280_temperature;BME280_humidity;BME280_pressure;Samples;Min_cycle;Max_cycle;Signal;HPM_P1;HPM_P2
2021/03/27 00:02:05;;;;;;;6.07;2.10;;;;;;;5.09;100.00;101377.28;5272763;28;20063;-78
2021/03/27 00:04:47;;;;;;;10.10;2.72;;;;;;;5.09;100.00;101383.44;5271059;28;20042;-79
2021/03/27 00:07:25;;;;;;;7.88;2.10;;;;;;;5.12;100.00;101382.34;5271553;28;20031;-78
2021/03/27 00:10:10;;;;;;;12.50;1.98;;;;;;;5.12;100.00;101385.88;5272790;28;20031;-78
2021/03/27 00:12:46;;;;;;;8.32;2.00;;;;;;;5.10;100.00;101381.63;5270469;28;20028;-78
2021/03/27 00:15:35;;;;;;;16.50;2.78;;;;;;;5.07;100.00;101377.41;5271961;28;20028;-79
2021/03/27 00:18:16;;;;;;;5.25;1.90;;;;;;;5.09;100.00;101377.28;5271284;28;20099;-78
2021/03/27 00:20:56;;;;;;;11.43;2.40;;;;;;;5.17;100.00;101394.34;5270195;28;20036;-77
2021/03/27 00:23:34;;;;;;;9.57;2.63;;;;;;;5.13;100.00;101392.88;5270848;28;20016;-79
2021/03/27 00:26:10;;;;;;;9.48;2.25;;;;;;;5.14;100.00;101383.09;5271727;28;20047;-79
2021/03/27 00:28:45;;;;;;;7.13;2.25;;;;;;;5.08;100.00;101380.91;5271516;28;20027;-78
2021/03/27 00:31:22;;;;;;;7.53;2.70;;;;;;;5.03;100.00;101391.03;5271509;28;20051;-78
2021/03/27 00:34:04;;;;;;;7.25;2.15;;;;;;;4.95;100.00;101396.94;5266882;28;20050;-78
2021/03/27 00:36:40;;;;;;;11.07;3.00;;;;;;;4.97;100.00;101402.13;5267991;28;20449;-78
2021/03/27 00:39:27;;;;;;;12.00;3.28;;;;;;;4.93;100.00;101396.22;5267720;28;20051;-78
2021/03/27 00:42:03;;;;;;;6.07;2.50;;;;;;;5.02;100.00;101406.16;5254822;28;20519;-79
2021/03/27 00:44:38;;;;;;;8.45;2.58;;;;;;;5.04;100.00;101417.50;5254062;28;20077;-78
2021/03/27 00:47:13;;;;;;;7.40;2.70;;;;;;;5.11;100.00;101420.53;5245325;28;20024;-78
2021/03/27 00:49:51;;;;;;;6.93;2.45;;;;;;;5.13;100.00;101426.63;5265141;28;20028;-78
2021/03/27 00:52:22;;;;;;;9.57;2.60;;;;;;;5.13;100.00;101415.97;5264126;28;20036;-78
2021/03/27 00:55:04;;;;;;;9.40;3.05;;;;;;;5.08;100.00;101412.81;5266549;28;20028;-77
2021/03/27 00:57:40;;;;;;;8.95;2.70;;;;;;;5.04;100.00;101419.31;5265781;28;20043;-78
2021/03/27 01:00:19;;;;;;;10.93;4.47;;;;;;;5.02;100.00;101422.13;5266035;28;20479;-78
2021/03/27 01:02:52;;;;;;;11.75;4.03;;;;;;;4.96;100.00;101417.22;5265475;28;20454;-78
2021/03/27 01:05:26;;;;;;;10.27;2.83;;;;;;;4.97;100.00;101421.63;5266243;28;20074;-78
2021/03/27 01:07:58;;;;;;;11.15;3.17;;;;;;;4.92;100.00;101411.31;5265792;28;20035;-78
2021/03/27 01:10:38;;;;;;;9.45;3.10;;;;;;;4.91;100.00;101414.91;5265622;28;20034;-78
2021/03/27 01:13:14;;;;;;;16.75;3.10;;;;;;;4.84;100.00;101413.69;5265895;28;20035;-78
2021/03/27 01:15:50;;;;;;;15.23;3.53;;;;;;;4.78;100.00;101419.47;5266495;28;20032;-78
2021/03/27 01:18:30;;;;;;;7.78;2.70;;;;;;;4.71;100.00;101420.88;5265743;28;20048;-78
2021/03/27 01:21:07;;;;;;;12.63;3.22;;;;;;;4.72;100.00;101421.72;5255656;28;20074;-78
2021/03/27 01:23:38;;;;;;;17.27;3.45;;;;;;;4.67;100.00;101417.63;5265236;28;20035;-78
2021/03/27 01:26:14;;;;;;;12.80;3.83;;;;;;;4.71;100.00;101428.84;5269544;28;20655;-79
2021/03/27 01:28:58;;;;;;;9.75;2.58;;;;;;;4.75;100.00;101427.69;5270458;28;20036;-79
2021/03/27 01:31:41;;;;;;;12.25;3.95;;;;;;;4.73;100.00;101434.09;5270775;28;20054;-79
2021/03/27 01:34:27;;;;;;;11.57;3.58;;;;;;;4.73;100.00;101434.94;5261935;28;20048;-77
2021/03/27 01:37:10;;;;;;;14.73;3.25;;;;;;;4.75;100.00;101440.13;5268385;28;20036;-78
2021/03/27 01:39:50;;;;;;;16.70;3.28;;;;;;;4.85;100.00;101438.47;5268816;28;20116;-78
2021/03/27 01:42:27;;;;;;;9.73;2.85;;;;;;;4.84;100.00;101437.63;5270414;28;20476;-79
2021/03/27 01:45:18;;;;;;;13.95;3.28;;;;;;;4.84;100.00;101448.25;5270812;28;20051;-78
2021/03/27 01:47:56;;;;;;;14.13;3.25;;;;;;;4.81;100.00;101440.50;5270457;28;20024;-79
2021/03/27 01:50:33;;;;;;;8.10;2.00;;;;;;;4.82;100.00;101452.84;5269104;28;20069;-77
2021/03/27 01:53:28;;;;;;;12.00;2.97;;;;;;;4.78;100.00;101450.53;5254763;28;20024;-79
2021/03/27 01:56:30;;;;;;;15.07;2.60;;;;;;;4.75;100.00;101456.91;5267622;28;20039;-78
2021/03/27 01:59:09;;;;;;;14.60;2.78;;;;;;;4.74;100.00;101454.38;5262300;28;20023;-78
2021/03/27 02:01:49;;;;;;;14.32;2.63;;;;;;;4.69;100.00;101462.69;5269292;28;20126;-79
2021/03/27 02:04:35;;;;;;;10.70;2.67;;;;;;;4.64;100.00;101465.69;5270481;28;20012;-79
2021/03/27 02:07:29;;;;;;;14.55;3.88;;;;;;;4.57;100.00;101464.44;5271368;28;20035;-79
2021/03/27 02:10:11;;;;;;;20.48;2.90;;;;;;;4.51;100.00;101466.69;5263013;28;20134;-77
2021/03/27 02:13:10;;;;;;;12.18;2.83;;;;;;;4.54;100.00;101463.81;5273708;28;20038;-77
2021/03/27 02:15:55;;;;;;;10.82;2.50;;;;;;;4.50;100.00;101465.00;5274842;28;20158;-78
2021/03/27 02:19:08;;;;;;;7.25;1.80;;;;;;;4.46;100.00;101469.69;5275029;28;20040;-77
2021/03/27 02:21:49;;;;;;;10.75;2.72;;;;;;;4.46;100.00;101482.13;5274795;28;20083;-78
2021/03/27 02:24:43;;;;;;;12.48;2.20;;;;;;;4.46;100.00;101476.81;5264889;28;20031;-78
2021/03/27 02:27:19;;;;;;;14.25;2.72;;;;;;;4.50;100.00;101470.31;5274447;28;20477;-78
2021/03/27 02:30:15;;;;;;;18.35;3.47;;;;;;;4.54;100.00;101463.81;5274490;28;20423;-77
2021/03/27 02:32:59;;;;;;;16.88;2.72;;;;;;;4.60;100.00;101466.03;5272548;28;20481;-78
2021/03/27 02:35:50;;;;;;;15.75;2.22;;;;;;;4.58;100.00;101460.81;5273683;28;20165;-78
2021/03/27 02:38:42;;;;;;;17.10;3.55;;;;;;;4.67;100.00;101475.25;5267736;28;20358;-79
2021/03/27 02:41:22;;;;;;;10.63;2.40;;;;;;;4.76;100.00;101476.38;5273719;28;20035;-78
2021/03/27 02:43:58;;;;;;;12.25;3.65;;;;;;;4.77;100.00;101470.97;5273651;28;20417;-79
2021/03/27 02:46:37;;;;;;;14.32;2.65;;;;;;;4.84;100.00;101461.56;5274038;28;20023;-78
2021/03/27 02:49:25;;;;;;;10.50;2.72;;;;;;;4.89;100.00;101475.34;5274030;28;20077;-78
2021/03/27 02:52:08;;;;;;;14.68;2.90;;;;;;;4.88;100.00;101473.66;5273149;28;20027;-78
2021/03/27 02:54:44;;;;;;;10.23;2.70;;;;;;;4.98;100.00;101475.63;5264787;28;20611;-77
2021/03/27 02:57:22;;;;;;;14.98;2.30;;;;;;;4.98;100.00;101481.81;5267544;28;20028;-78
2021/03/27 03:00:03;;;;;;;11.95;2.60;;;;;;;5.03;100.00;101478.81;5267687;28;20020;-79
2021/03/27 03:03:00;;;;;;;16.35;3.65;;;;;;;5.14;100.00;101476.19;5272072;28;20019;-79
2021/03/27 03:05:39;;;;;;;14.38;2.33;;;;;;;5.24;100.00;101490.47;5268627;28;20049;-79
2021/03/27 03:08:21;;;;;;;12.15;3.28;;;;;;;5.18;100.00;101496.28;5269874;28;20496;-78
2021/03/27 03:11:02;;;;;;;18.08;2.72;;;;;;;5.16;100.00;101506.16;5267628;28;20477;-78
2021/03/27 03:13:43;;;;;;;13.25;2.45;;;;;;;5.08;100.00;101500.59;5269047;28;20110;-79
2021/03/27 03:16:30;;;;;;;15.05;2.28;;;;;;;5.10;100.00;101494.16;5268149;28;20035;-78
2021/03/27 03:19:09;;;;;;;20.52;2.42;;;;;;;5.14;100.00;101505.44;5267198;28;20028;-78
2021/03/27 03:21:46;;;;;;;12.80;2.22;;;;;;;5.12;100.00;101524.19;5254541;28;20028;-78
2021/03/27 03:24:22;;;;;;;23.42;3.20;;;;;;;5.06;100.00;101513.97;5267474;28;20498;-78
2021/03/27 03:27:23;;;;;;;18.42;2.80;;;;;;;5.00;100.00;101527.72;5268024;28;20024;-78
2021/03/27 03:30:26;;;;;;;20.17;2.67;;;;;;;4.96;100.00;101515.63;5244629;28;20047;-78
2021/03/27 03:33:31;;;;;;;13.82;2.85;;;;;;;5.10;100.00;101533.22;5259492;28;20020;-78
2021/03/27 03:36:14;;;;;;;10.57;2.90;;;;;;;5.14;100.00;101521.41;5266314;28;20028;-78
2021/03/27 03:39:07;;;;;;;26.92;3.63;;;;;;;5.17;100.00;101530.00;5267502;28;20020;-78
2021/03/27 03:41:46;;;;;;;21.95;3.22;;;;;;;5.18;100.00;101538.81;5267461;28;20024;-78
2021/03/27 03:44:34;;;;;;;20.13;3.35;;;;;;;5.25;100.00;101552.50;5267716;28;20028;-78
2021/03/27 03:47:23;;;;;;;13.30;2.50;;;;;;;5.27;100.00;101563.88;5267194;28;20034;-78
2021/03/27 03:50:13;;;;;;;20.20;2.88;;;;;;;5.29;100.00;101544.19;5253260;28;20538;-77
2021/03/27 03:52:58;;;;;;;15.13;2.75;;;;;;;5.18;100.00;101550.31;5271693;28;20035;-78
2021/03/27 03:55:57;;;;;;;14.32;3.20;;;;;;;5.06;100.00;101559.19;5269249;28;20112;-78
2021/03/27 03:58:35;;;;;;;14.55;3.38;;;;;;;5.00;100.00;101566.78;5264465;28;20465;-78
2021/03/27 04:01:16;;;;;;;16.52;2.30;;;;;;;4.93;100.00;101571.72;5263241;28;20032;-78
2021/03/27 04:04:03;;;;;;;21.77;3.78;;;;;;;4.82;100.00;101585.78;5267511;28;20055;-78
2021/03/27 04:06:38;;;;;;;14.52;3.45;;;;;;;4.78;100.00;101584.31;5259354;28;20393;-79
2021/03/27 04:09:22;;;;;;;14.98;2.95;;;;;;;4.85;100.00;101590.00;5261713;28;20051;-80
2021/03/27 04:12:07;;;;;;;25.52;4.15;;;;;;;4.92;100.00;101585.97;5267204;28;20020;-79
2021/03/27 04:15:00;;;;;;;14.88;2.55;;;;;;;5.05;100.00;101592.06;5267053;28;20081;-79
2021/03/27 04:17:51;;;;;;;15.98;2.70;;;;;;;5.08;100.00;101591.00;5266865;28;20028;-80
2021/03/27 04:20:29;;;;;;;14.85;2.78;;;;;;;5.15;100.00;101603.72;5266275;28;20049;-79
2021/03/27 04:23:10;;;;;;;13.38;2.47;;;;;;;5.20;100.00;101603.41;5266718;28;20020;-78
2021/03/27 04:25:48;;;;;;;19.83;2.63;;;;;;;5.19;100.00;101602.53;5266618;28;20039;-79
2021/03/27 04:28:34;;;;;;;12.15;2.50;;;;;;;5.22;100.00;101598.81;5266815;28;20031;-80
2021/03/27 04:31:12;;;;;;;13.60;2.22;;;;;;;5.22;100.00;101597.94;5265804;28;20024;-79
2021/03/27 04:34:08;;;;;;;26.70;3.95;;;;;;;5.23;100.00;101595.19;5266837;28;20024;-78
2021/03/27 04:36:47;;;;;;;16.40;2.53;;;;;;;5.18;100.00;101608.00;5266093;28;20453;-78
2021/03/27 04:39:27;;;;;;;17.27;4.70;;;;;;;5.16;100.00;101600.09;5266316;28;20137;-78
2021/03/27 04:42:07;;;;;;;14.35;2.35;;;;;;;5.19;100.00;101607.03;5266381;28;20020;-78
2021/03/27 04:44:58;;;;;;;16.58;2.58;;;;;;;5.23;100.00;101615.63;5265542;28;20081;-78
2021/03/27 04:47:36;;;;;;;21.77;3.10;;;;;;;5.18;100.00;101616.81;5265829;28;20077;-78
2021/03/27 04:50:10;;;;;;;14.60;2.47;;;;;;;5.17;100.00;101611.59;5266363;28;20024;-78
2021/03/27 04:52:41;;;;;;;25.95;3.72;;;;;;;5.19;100.00;101620.31;5266269;28;20035;-80
2021/03/27 04:55:49;;;;;;;14.75;2.72;;;;;;;5.19;100.00;101630.97;5258241;28;20028;-78
2021/03/27 04:58:26;;;;;;;11.52;2.42;;;;;;;5.23;100.00;101643.09;5266276;28;20096;-78
2021/03/27 05:01:37;;;;;;;17.98;4.18;;;;;;;5.21;100.00;101650.31;5257779;28;20060;-78
2021/03/27 05:04:21;;;;;;;12.98;3.10;;;;;;;5.14;100.00;101652.56;5266198;28;20030;-80
2021/03/27 05:07:05;;;;;;;14.48;2.42;;;;;;;5.08;100.00;101649.53;5265965;28;20028;-78
2021/03/27 05:09:40;;;;;;;6.97;1.90;;;;;;;4.92;100.00;101644.47;5269503;28;20036;-79
2021/03/27 05:12:11;;;;;;;13.30;2.45;;;;;;;4.88;100.00;101651.81;5269688;28;20020;-78
2021/03/27 05:14:45;;;;;;;6.00;1.60;;;;;;;4.78;100.00;101650.75;5269776;28;20031;-79
2021/03/27 05:17:25;;;;;;;5.53;1.30;;;;;;;4.73;100.00;101650.25;5268498;28;20039;-78
2021/03/27 05:20:05;;;;;;;13.10;1.52;;;;;;;4.59;100.00;101653.03;5266358;28;20035;-78
2021/03/27 05:22:54;;;;;;;8.63;2.15;;;;;;;4.58;100.00;101667.28;5269366;28;20026;-78
2021/03/27 05:25:35;;;;;;;8.35;1.40;;;;;;;4.58;100.00;101677.91;5269143;28;20492;-77
2021/03/27 05:28:37;;;;;;;5.50;1.80;;;;;;;4.60;100.00;101683.94;5269154;28;20031;-79
2021/03/27 05:31:28;;;;;;;6.07;0.90;;;;;;;4.61;100.00;101686.47;5268058;28;20024;-79
2021/03/27 05:34:14;;;;;;;3.95;0.90;;;;;;;4.55;100.00;101689.56;5251126;28;20103;-78
2021/03/27 05:37:15;;;;;;;7.30;0.85;;;;;;;4.51;100.00;101692.56;5269192;28;20103;-79
2021/03/27 05:39:56;;;;;;;8.15;0.98;;;;;;;4.46;100.00;101700.84;5269513;28;20024;-79
2021/03/27 05:43:10;;;;;;;3.70;0.70;;;;;;;4.40;100.00;101715.41;5268765;28;20022;-79
2021/03/27 05:45:58;;;;;;;2.58;0.80;;;;;;;4.31;100.00;101718.69;5271915;28;20114;-77
2021/03/27 05:49:14;;;;;;;7.72;0.85;;;;;;;4.21;100.00;101724.72;5269830;28;20093;-80
2021/03/27 05:51:59;;;;;;;5.65;0.75;;;;;;;4.13;100.00;101742.03;5273465;28;20027;-76
2021/03/27 05:54:53;;;;;;;6.38;1.00;;;;;;;4.08;100.00;101744.16;5269644;28;20065;-79
2021/03/27 05:57:42;;;;;;;4.72;1.17;;;;;;;4.01;100.00;101753.47;5262827;28;20039;-79
2021/03/27 06:00:31;;;;;;;8.98;2.50;;;;;;;4.10;100.00;101760.81;5272672;28;20039;-76
2021/03/27 06:03:29;;;;;;;15.15;1.73;;;;;;;4.10;100.00;101752.84;5272088;28;20066;-77
2021/03/27 06:06:27;;;;;;;10.35;1.40;;;;;;;4.09;100.00;101776.88;5272814;28;20046;-78
2021/03/27 06:09:25;;;;;;;5.40;1.63;;;;;;;4.03;100.00;101785.25;5272689;28;20118;-79
2021/03/27 06:11:56;;;;;;;10.13;1.42;;;;;;;4.01;100.00;101784.47;5260965;28;20547;-78
2021/03/27 06:14:52;;;;;;;10.40;1.60;;;;;;;4.13;100.00;101794.31;5273202;28;20036;-79
2021/03/27 06:17:54;;;;;;;11.68;2.47;;;;;;;4.18;100.00;101797.50;5270809;28;20024;-78
2021/03/27 06:20:47;;;;;;;12.38;1.50;;;;;;;4.26;100.00;101807.59;5271621;28;20024;-77
2021/03/27 06:23:51;;;;;;;17.48;1.75;;;;;;;4.36;100.00;101801.56;5258023;28;20054;-75
2021/03/27 06:26:41;;;;;;;10.93;1.58;;;;;;;4.47;100.00;101806.19;5270129;28;20342;-77
2021/03/27 06:29:49;;;;;;;7.50;1.25;;;;;;;4.55;100.00;101819.78;5269254;28;20031;-76
2021/03/27 06:32:36;;;;;;;10.27;1.40;;;;;;;4.60;100.00;101809.72;5269827;28;20028;-77
2021/03/27 06:35:24;;;;;;;19.02;2.75;;;;;;;4.70;100.00;101822.38;5271191;28;20016;-79
2021/03/27 06:38:13;;;;;;;11.75;1.70;;;;;;;4.79;100.00;101827.06;5267478;28;20024;-77
2021/03/27 06:41:12;;;;;;;14.70;2.00;;;;;;;4.88;100.00;101831.75;5268679;28;20024;-77
2021/03/27 06:44:14;;;;;;;8.68;1.80;;;;;;;5.03;100.00;101829.84;5268649;28;20024;-78
2021/03/27 06:47:08;;;;;;;7.53;1.75;;;;;;;5.11;100.00;101830.16;5268681;28;20020;-77
2021/03/27 06:49:58;;;;;;;12.98;2.00;;;;;;;5.08;100.00;101838.38;5268752;28;20055;-79
2021/03/27 06:52:38;;;;;;;4.80;1.45;;;;;;;5.25;100.00;101842.50;5255842;28;20073;-78
2021/03/27 06:55:34;;;;;;;11.00;2.00;;;;;;;5.40;100.00;101847.59;5264324;28;20039;-76
2021/03/27 06:58:35;;;;;;;13.93;1.70;;;;;;;5.59;100.00;101846.28;5268192;28;20023;-76
2021/03/27 07:01:31;;;;;;;12.35;1.92;;;;;;;5.84;100.00;101856.03;5267924;28;20034;-76
2021/03/27 07:04:38;;;;;;;22.98;5.03;;;;;;;6.02;100.00;101852.03;5268786;28;20024;-76
2021/03/27 07:07:40;;;;;;;15.68;5.10;;;;;;;6.02;100.00;101867.19;5268910;28;20027;-76
2021/03/27 07:10:29;;;;;;;13.38;3.35;;;;;;;5.95;100.00;101859.63;5256183;28;20027;-76
2021/03/27 07:13:08;;;;;;;9.80;3.15;;;;;;;6.11;100.00;101866.50;5268534;28;20063;-75
2021/03/27 07:15:48;;;;;;;14.45;2.30;;;;;;;6.16;100.00;101873.19;5268252;28;20154;-76
2021/03/27 07:18:43;;;;;;;10.45;1.95;;;;;;;6.23;100.00;101870.94;5268090;28;20114;-76
2021/03/27 07:21:44;;;;;;;19.10;2.80;;;;;;;5.92;100.00;101874.97;5268026;28;20036;-77
2021/03/27 07:24:46;;;;;;;12.02;2.55;;;;;;;6.04;100.00;101886.56;5268001;28;20530;-77
2021/03/27 07:27:48;;;;;;;15.45;2.53;;;;;;;6.19;100.00;101893.44;5267587;28;20463;-76
2021/03/27 07:30:32;;;;;;;15.05;3.58;;;;;;;6.43;100.00;101894.31;5267764;28;20032;-76
2021/03/27 07:33:42;;;;;;;23.60;3.25;;;;;;;6.76;100.00;101898.06;5267859;28;20032;-76
2021/03/27 07:36:20;;;;;;;21.20;3.20;;;;;;;6.78;100.00;101901.50;5257893;28;20039;-75
2021/03/27 07:39:10;;;;;;;13.32;3.00;;;;;;;6.66;100.00;101907.72;5266198;28;20064;-75
2021/03/27 07:42:03;;;;;;;19.48;2.45;;;;;;;6.79;100.00;101908.53;5267410;28;20027;-75
2021/03/27 07:44:57;;;;;;;17.15;2.42;;;;;;;6.61;100.00;101893.88;5267470;28;20067;-74
2021/03/27 07:47:34;;;;;;;20.30;2.55;;;;;;;6.67;100.00;101914.75;5267355;28;20027;-75
2021/03/27 07:50:11;;;;;;;23.77;3.30;;;;;;;6.69;100.00;101923.50;5267148;28;20135;-77
2021/03/27 07:53:02;;;;;;;15.95;2.72;;;;;;;6.71;100.00;101921.56;5267327;28;20573;-76
2021/03/27 07:55:58;;;;;;;14.25;2.40;;;;;;;6.63;100.00;101929.31;5264727;28;20028;-77
2021/03/27 07:58:53;;;;;;;19.60;3.60;;;;;;;6.79;100.00;101929.00;5263192;28;20028;-76
2021/03/27 08:01:54;;;;;;;22.55;2.40;;;;;;;6.84;100.00;101940.19;5263630;28;20544;-76
2021/03/27 08:04:46;;;;;;;19.00;2.42;;;;;;;6.96;100.00;101933.91;5266931;28;20103;-78
2021/03/27 08:07:25;;;;;;;13.88;2.38;;;;;;;7.07;100.00;101941.09;5265781;28;20039;-77
2021/03/27 08:10:15;;;;;;;24.40;3.50;;;;;;;7.21;100.00;101952.41;5266976;28;20036;-75
2021/03/27 08:12:47;;;;;;;18.38;2.28;;;;;;;7.07;100.00;101962.44;5266971;28;20541;-75
2021/03/27 08:15:43;;;;;;;20.65;2.92;;;;;;;6.98;100.00;101962.19;5266766;28;20389;-75
2021/03/27 08:18:39;;;;;;;13.63;2.55;;;;;;;6.99;100.00;101971.88;5267187;28;20088;-76
2021/03/27 08:21:24;;;;;;;22.65;3.20;;;;;;;6.96;100.00;101964.09;5266908;28;20447;-76
2021/03/27 08:23:59;;;;;;;;;;;;;;;7.26;100.00;101981.44;5267206;28;20055;-76
2021/03/27 08:26:48;;;;;;;13.98;2.63;;;;;;;7.63;100.00;101978.56;5266530;28;20002;-77
2021/03/27 08:29:58;;;;;;;12.75;2.83;;;;;;;7.45;100.00;101983.53;5266436;28;20108;-78
2021/03/27 08:33:07;;;;;;;18.15;2.63;;;;;;;7.46;100.00;102004.78;5264623;28;20366;-76
2021/03/27 08:36:04;;;;;;;16.33;3.22;;;;;;;7.74;100.00;102013.34;5266806;28;20028;-76
2021/03/27 08:38:54;;;;;;;15.20;2.33;;;;;;;7.66;100.00;102002.38;5266524;28;20047;-75
2021/03/27 08:41:40;;;;;;;15.07;3.05;;;;;;;7.75;100.00;102009.69;5266540;28;20401;-77
2021/03/27 08:44:33;;;;;;;;;;;;;;;7.77;100.00;102013.09;5259678;28;20036;-77
2021/03/27 08:47:29;;;;;;;14.75;2.53;;;;;;;7.72;100.00;102010.75;5259201;28;19934;-75
2021/03/27 08:50:25;;;;;;;7.40;1.95;;;;;;;7.51;100.00;102026.63;5265128;28;20024;-77
2021/03/27 08:53:16;;;;;;;14.57;3.05;;;;;;;7.43;100.00;102022.84;5266092;28;20048;-75
2021/03/27 08:56:07;;;;;;;20.85;3.58;;;;;;;7.68;100.00;102027.16;5265845;28;20035;-76
2021/03/27 08:59:02;;;;;;;13.85;2.78;;;;;;;7.59;100.00;102027.88;5264162;28;20024;-76
2021/03/27 09:01:58;;;;;;;23.85;2.72;;;;;;;7.48;100.00;102040.25;5264803;28;20028;-77
2021/03/27 09:04:36;;;;;;;;;;;;;;;7.47;100.00;102054.53;5265536;28;20024;-78
2021/03/27 09:07:21;;;;;;;16.65;2.90;;;;;;;7.68;100.00;102052.06;5268261;28;19908;-76
2021/03/27 09:10:20;;;;;;;12.70;2.20;;;;;;;7.89;100.00;102076.28;5267827;28;20031;-76
2021/03/27 09:13:21;;;;;;;12.90;2.80;;;;;;;7.92;100.00;102078.69;5266806;28;20035;-78
2021/03/27 09:15:53;;;;;;;13.80;2.63;;;;;;;7.87;100.00;102080.84;5265602;28;20118;-76
2021/03/27 09:18:29;;;;;;;10.50;2.65;;;;;;;7.77;100.00;102082.53;5264955;28;20028;-77
2021/03/27 09:21:11;;;;;;;17.35;2.67;;;;;;;7.92;100.00;102085.84;5265927;28;20516;-78
2021/03/27 09:23:59;;;;;;;11.00;2.47;;;;;;;8.03;100.00;102093.88;5259729;28;20477;-76
2021/03/27 09:26:45;;;;;;;13.45;2.40;;;;;;;7.95;100.00;102097.16;5267299;28;20546;-77
2021/03/27 09:29:27;;;;;;;14.68;2.80;;;;;;;7.99;100.00;102097.78;5267199;28;20535;-77
2021/03/27 09:32:15;;;;;;;9.32;1.73;;;;;;;8.12;100.00;102103.00;5265397;28;20434;-76
2021/03/27 09:35:08;;;;;;;9.00;1.48;;;;;;;8.15;100.00;102098.28;5266941;28;20098;-78
2021/03/27 09:37:46;;;;;;;12.00;2.08;;;;;;;7.98;100.00;102099.59;5266294;28;20028;-76
2021/03/27 09:40:39;;;;;;;13.13;2.15;;;;;;;7.68;100.00;102104.59;5265672;28;20032;-76
2021/03/27 09:43:42;;;;;;;9.80;2.15;;;;;;;7.50;100.00;102112.22;5265598;28;20024;-76
2021/03/27 09:46:51;;;;;;;18.50;2.30;;;;;;;7.34;100.00;102114.34;5265742;28;20028;-77
2021/03/27 09:49:56;;;;;;;18.77;2.92;;;;;;;7.67;100.00;102121.59;5267000;28;20020;-77
2021/03/27 09:52:44;;;;;;;11.85;2.42;;;;;;;7.89;100.00;102116.34;5267111;28;20067;-78
2021/03/27 09:55:36;;;;;;;11.10;2.70;;;;;;;8.27;100.00;102128.53;5260137;28;20106;-78
2021/03/27 09:58:17;;;;;;;13.35;2.45;;;;;;;8.67;100.00;102136.13;5269808;28;20474;-78
2021/03/27 10:00:47;;;;;;;10.35;3.08;;;;;;;8.52;100.00;102143.53;5256720;28;20013;-78
2021/03/27 10:03:40;;;;;;;15.10;2.60;;;;;;;8.52;99.02;102148.88;5269691;28;20031;-78
2021/03/27 10:06:48;;;;;;;18.55;2.95;;;;;;;8.42;97.27;102155.94;5269267;28;20028;-76
2021/03/27 10:09:35;;;;;;;9.52;2.00;;;;;;;8.37;97.04;102150.94;5265493;28;20021;-76
2021/03/27 10:12:18;;;;;;;8.60;2.58;;;;;;;8.57;100.00;102165.44;5265696;28;20028;-77
2021/03/27 10:14:55;;;;;;;11.55;2.03;;;;;;;8.84;100.00;102170.44;5265961;28;20028;-77
2021/03/27 10:17:34;;;;;;;11.45;1.92;;;;;;;8.67;90.88;102173.59;5265820;28;20028;-77
2021/03/27 10:20:37;;;;;;;7.75;1.75;;;;;;;8.67;90.86;102179.78;5266130;28;20376;-77
2021/03/27 10:23:38;;;;;;;7.82;1.63;;;;;;;9.05;94.79;102184.75;5265981;28;20103;-77
2021/03/27 10:26:22;;;;;;;8.60;1.80;;;;;;;9.30;83.21;102185.44;5250640;28;20397;-75
2021/03/27 10:29:02;;;;;;;4.95;1.60;;;;;;;9.63;88.94;102189.84;5262333;28;20031;-76
2021/03/27 10:31:41;;;;;;;6.32;1.65;;;;;;;9.52;91.99;102193.41;5269122;28;20036;-77
2021/03/27 10:34:30;;;;;;;10.70;1.75;;;;;;;9.59;83.50;102194.63;5264341;28;20024;-77
2021/03/27 10:37:10;;;;;;;11.15;1.50;;;;;;;9.67;75.81;102203.84;5269772;28;20099;-76
2021/03/27 10:39:59;;;;;;;7.18;1.27;;;;;;;9.32;62.51;102212.94;5267060;28;20024;-77
2021/03/27 10:42:44;;;;;;;4.85;1.33;;;;;;;8.80;61.52;102214.47;5263323;28;20209;-76
2021/03/27 10:45:31;;;;;;;5.00;1.50;;;;;;;8.73;63.01;102227.44;5268860;28;20096;-77
2021/03/27 10:48:04;;;;;;;8.80;1.92;;;;;;;8.69;64.28;102222.50;5267916;28;20032;-76
2021/03/27 10:50:55;;;;;;;4.75;0.90;;;;;;;8.50;63.53;102231.94;5268561;28;20039;-81
2021/03/27 10:53:42;;;;;;;13.05;1.15;;;;;;;8.40;65.56;102235.44;5268729;28;20039;-77
2021/03/27 10:56:32;;;;;;;11.20;1.73;;;;;;;8.45;64.69;102235.94;5266813;28;20041;-76
2021/03/27 10:59:11;;;;;;;6.50;1.85;;;;;;;8.51;64.07;102244.34;5269420;28;20028;-77
2021/03/27 11:01:51;;;;;;;10.23;2.28;;;;;;;8.64;72.21;102238.03;5258896;28;20063;-78
2021/03/27 11:04:53;;;;;;;11.02;1.80;;;;;;;8.94;61.25;102240.97;5259079;28;20023;-77
2021/03/27 11:07:37;;;;;;;10.60;2.38;;;;;;;9.21;56.55;102240.59;5268606;28;20064;-76
2021/03/27 11:10:16;;;;;;;16.02;3.03;;;;;;;9.15;56.44;102226.84;5268520;28;20028;-77
2021/03/27 11:13:06;;;;;;;7.30;2.53;;;;;;;9.08;55.61;102253.25;5267902;28;20081;-77
2021/03/27 11:15:53;;;;;;;13.57;2.90;;;;;;;9.20;63.00;102251.44;5268320;28;20039;-76
2021/03/27 11:18:45;;;;;;;6.35;1.60;;;;;;;9.35;55.07;102255.56;5269563;28;20078;-76
2021/03/27 11:21:36;;;;;;;10.55;2.47;;;;;;;9.37;59.64;102264.31;5269619;28;20039;-77
2021/03/27 11:24:25;;;;;;;4.40;1.15;;;;;;;9.41;57.77;102262.25;5258487;28;20073;-76
2021/03/27 11:27:14;;;;;;;7.97;2.97;;;;;;;9.30;54.73;102269.31;5269108;28;20028;-77
2021/03/27 11:30:01;;;;;;;10.15;1.90;;;;;;;9.23;53.23;102262.72;5261079;28;20020;-77
2021/03/27 11:32:45;;;;;;;10.25;2.33;;;;;;;9.30;52.67;102271.16;5268427;28;20036;-77
2021/03/27 11:35:22;;;;;;;14.32;3.00;;;;;;;9.28;56.34;102281.97;5262060;28;20111;-78
2021/03/27 11:38:03;;;;;;;6.38;1.60;;;;;;;9.09;52.11;102281.75;5267670;28;20028;-77
2021/03/27 11:40:39;;;;;;;10.15;1.58;;;;;;;8.95;52.24;102284.66;5267501;28;20028;-76
2021/03/27 11:43:49;;;;;;;9.18;1.45;;;;;;;8.78;51.01;102286.81;5267440;28;20024;-77
2021/03/27 11:46:27;;;;;;;9.80;1.55;;;;;;;8.80;52.02;102284.03;5266751;28;20047;-77
2021/03/27 11:49:05;;;;;;;7.82;1.92;;;;;;;9.07;49.71;102289.03;5267636;28;20100;-76
2021/03/27 11:51:44;;;;;;;13.82;2.33;;;;;;;9.23;48.78;102294.00;5266986;28;20036;-77
2021/03/27 11:54:44;;;;;;;7.45;1.50;;;;;;;9.54;52.22;102298.63;5263573;28;20035;-77
2021/03/27 11:57:31;;;;;;;7.13;1.52;;;;;;;9.66;48.31;102288.72;5262171;28;20538;-77
2021/03/27 12:03:26;;;;;;;9.50;1.90;;;;;;;9.46;51.44;102289.50;5258658;28;20027;-78
2021/03/27 12:06:13;;;;;;;6.00;1.75;;;;;;;9.49;52.79;102295.47;5267179;28;20028;-78
2021/03/27 12:08:57;;;;;;;7.15;1.90;;;;;;;9.50;50.40;102305.22;5267258;28;20640;-77
2021/03/27 12:11:46;;;;;;;9.00;1.98;;;;;;;9.84;55.94;102307.84;5266627;28;20028;-78
2021/03/27 12:14:27;;;;;;;14.70;2.83;;;;;;;10.18;54.01;102313.06;5269108;28;20508;-79
2021/03/27 12:17:21;;;;;;;7.30;2.63;;;;;;;10.25;47.23;102303.56;5268467;28;20031;-79
2021/03/27 12:20:08;;;;;;;6.05;1.63;;;;;;;10.49;47.50;102314.94;5264441;28;20104;-77
2021/03/27 12:22:46;;;;;;;8.55;1.58;;;;;;;10.59;44.88;102325.69;5266783;28;20028;-78
2021/03/27 12:25:41;;;;;;;9.18;1.77;;;;;;;10.79;46.46;102316.81;5266489;28;20036;-78
2021/03/27 12:28:16;;;;;;;9.27;1.80;;;;;;;11.06;49.26;102328.84;5266220;28;20027;-77
2021/03/27 12:31:02;;;;;;;4.20;1.15;;;;;;;11.38;45.62;102324.16;5266711;28;20070;-77
2021/03/27 12:33:50;;;;;;;7.68;1.65;;;;;;;11.63;46.84;102325.53;5255246;28;20024;-77
2021/03/27 12:36:28;;;;;;;9.15;1.88;;;;;;;11.70;46.06;102330.34;5266393;28;20031;-78
2021/03/27 12:39:21;;;;;;;6.70;1.63;;;;;;;11.17;44.12;102309.09;5266354;28;20046;-78
2021/03/27 12:41:57;;;;;;;10.77;1.90;;;;;;;11.25;44.44;102326.25;5265701;28;20028;-78
2021/03/27 12:44:44;;;;;;;8.57;1.98;;;;;;;11.42;43.21;102327.44;5263703;28;20687;-77
2021/03/27 12:47:26;;;;;;;7.93;1.50;;;;;;;11.55;44.73;102330.75;5265384;28;20497;-76
2021/03/27 12:50:10;;;;;;;5.97;2.28;;;;;;;11.70;45.79;102330.34;5266188;28;20038;-77
2021/03/27 12:52:46;;;;;;;5.90;0.90;;;;;;;11.72;41.55;102329.22;5265379;28;20066;-78
2021/03/27 12:55:25;;;;;;;8.00;1.80;;;;;;;11.53;43.47;102342.59;5266649;28;20094;-77